createdAt,value
2022-07-31T00:01:16.108Z,99.90
2022-07-31T00:03:43.114Z,99.90
2022-07-31T00:06:10.084Z,99.90
2022-07-31T00:08:36.926Z,99.90
2022-07-31T00:11:03.782Z,99.90
2022-07-31T00:13:57.437Z,99.90
2022-07-31T00:16:17.528Z,99.90
2022-07-31T00:18:44.404Z,99.90
2022-07-31T00:21:11.353Z,99.90
2022-07-31T00:23:38.215Z,99.90
2022-07-31T00:26:05.036Z,99.90
2022-07-31T00:28:31.879Z,99.90
2022-07-31T00:30:58.689Z,99.90
2022-07-31T00:33:25.514Z,99.90
2022-07-31T00:35:52.335Z,99.90
2022-07-31T00:38:27.103Z,99.90
2022-07-31T00:40:54.623Z,99.90
2022-07-31T00:43:21.893Z,99.90
2022-07-31T00:45:58.669Z,99.90
2022-07-31T00:48:25.993Z,99.90
2022-07-31T00:50:55.609Z,99.90
2022-07-31T00:53:22.486Z,99.90
2022-07-31T00:55:51.966Z,99.90
2022-07-31T00:58:20.224Z,99.90
2022-07-31T01:00:47.943Z,99.90
2022-07-31T01:03:15.474Z,99.90
2022-07-31T01:05:42.357Z,99.90
2022-07-31T01:08:09.258Z,99.90
2022-07-31T01:11:03.556Z,99.90
2022-07-31T01:13:47.473Z,99.90
2022-07-31T01:16:15.585Z,99.90
2022-07-31T01:18:43.538Z,99.90
2022-07-31T01:21:19.910Z,99.90
2022-07-31T01:24:15.769Z,99.90
2022-07-31T01:27:04.302Z,99.90
2022-07-31T01:30:01.103Z,99.90
2022-07-31T01:32:41.942Z,99.90
2022-07-31T01:35:18.118Z,99.90
2022-07-31T01:37:53.900Z,99.90
2022-07-31T01:40:28.323Z,99.90
2022-07-31T01:43:09.104Z,99.90
2022-07-31T01:45:39.445Z,99.90
2022-07-31T01:48:08.562Z,99.90
2022-07-31T01:50:43.683Z,99.90
2022-07-31T01:53:16.414Z,99.90
2022-07-31T01:56:02.984Z,99.90
2022-07-31T01:58:37.063Z,99.90
2022-07-31T02:01:05.758Z,99.90
2022-07-31T02:03:43.023Z,99.90
2022-07-31T02:06:15.167Z,99.90
2022-07-31T02:08:45.910Z,99.90
2022-07-31T02:11:16.034Z,99.90
2022-07-31T02:13:44.907Z,99.90
2022-07-31T02:16:14.357Z,99.90
2022-07-31T02:18:42.558Z,99.90
2022-07-31T02:21:10.262Z,99.90
2022-07-31T02:23:38.471Z,99.90
2022-07-31T02:26:07.107Z,99.90
2022-07-31T02:28:38.184Z,99.90
2022-07-31T02:31:10.851Z,99.90
2022-07-31T02:33:40.247Z,99.90
2022-07-31T02:36:07.577Z,99.90
2022-07-31T02:38:35.283Z,99.90
2022-07-31T02:41:05.074Z,99.90
2022-07-31T02:43:33.379Z,99.90
2022-07-31T02:46:00.719Z,99.90
2022-07-31T02:48:28.192Z,99.90
2022-07-31T02:50:56.174Z,99.90
2022-07-31T02:53:23.229Z,99.90
2022-07-31T02:55:51.752Z,99.90
2022-07-31T02:58:18.678Z,99.90
2022-07-31T03:00:45.960Z,99.90
2022-07-31T03:03:13.321Z,99.90
2022-07-31T03:05:40.185Z,99.90
2022-07-31T03:08:07.019Z,99.90
2022-07-31T03:10:33.838Z,99.90
2022-07-31T03:13:01.632Z,99.90
2022-07-31T03:15:30.688Z,99.90
2022-07-31T03:17:58.511Z,99.90
2022-07-31T03:20:27.070Z,99.90
2022-07-31T03:22:54.428Z,99.90
2022-07-31T03:25:22.290Z,99.90
2022-07-31T03:27:56.707Z,99.90
2022-07-31T03:30:25.271Z,99.90
2022-07-31T03:32:56.774Z,99.90
2022-07-31T03:35:24.990Z,99.90
2022-07-31T03:37:52.291Z,99.90
2022-07-31T03:40:19.457Z,99.90
2022-07-31T03:42:49.159Z,99.90
2022-07-31T03:45:16.785Z,99.90
2022-07-31T03:47:43.893Z,99.90
2022-07-31T03:50:11.630Z,99.90
2022-07-31T03:52:38.992Z,99.90
2022-07-31T03:55:08.323Z,99.90
2022-07-31T03:57:37.983Z,99.90
2022-07-31T04:00:07.921Z,99.90
2022-07-31T04:02:45.041Z,99.90
2022-07-31T04:05:12.191Z,99.90
2022-07-31T04:07:39.071Z,99.90
2022-07-31T04:10:06.754Z,99.90
2022-07-31T04:12:33.656Z,99.90
2022-07-31T04:15:00.519Z,99.90
2022-07-31T04:17:27.397Z,99.90
2022-07-31T04:19:57.972Z,99.90
2022-07-31T04:22:25.398Z,99.90
2022-07-31T04:24:52.263Z,99.90
2022-07-31T04:27:19.371Z,99.90
2022-07-31T04:29:46.662Z,99.90
2022-07-31T04:32:13.538Z,99.90
2022-07-31T04:34:40.511Z,99.90
2022-07-31T04:37:07.543Z,99.90
2022-07-31T04:39:34.789Z,99.90
2022-07-31T04:42:01.939Z,99.90
2022-07-31T04:44:29.079Z,99.90
2022-07-31T04:47:00.705Z,99.90
2022-07-31T04:49:27.790Z,99.90
2022-07-31T04:51:54.777Z,99.90
2022-07-31T04:54:21.646Z,99.90
2022-07-31T04:56:48.633Z,99.90
2022-07-31T04:59:20.224Z,99.90
2022-07-31T05:01:48.522Z,99.90
2022-07-31T05:04:16.395Z,99.90
2022-07-31T05:06:46.699Z,99.90
2022-07-31T05:09:18.980Z,99.90
2022-07-31T05:11:48.282Z,99.90
2022-07-31T05:14:17.836Z,99.90
2022-07-31T05:16:45.730Z,99.90
2022-07-31T05:19:14.741Z,99.90
2022-07-31T05:21:52.957Z,99.90
2022-07-31T05:24:32.720Z,99.90
2022-07-31T05:27:02.768Z,99.90
2022-07-31T05:29:31.085Z,99.90
2022-07-31T05:31:59.966Z,99.90
2022-07-31T05:34:30.168Z,99.90
2022-07-31T05:37:01.913Z,99.90
2022-07-31T05:39:30.164Z,99.90
2022-07-31T05:41:57.473Z,99.90
2022-07-31T05:44:24.721Z,99.90
2022-07-31T05:49:19.312Z,99.90
2022-07-31T05:51:46.731Z,99.90
2022-07-31T05:54:14.402Z,99.90
2022-07-31T05:56:41.355Z,99.90
2022-07-31T05:59:09.677Z,99.90
2022-07-31T06:01:37.146Z,99.90
2022-07-31T06:04:04.087Z,99.90
2022-07-31T06:06:31.006Z,99.90
2022-07-31T06:09:03.822Z,99.90
2022-07-31T06:11:32.101Z,99.90
2022-07-31T06:13:59.283Z,99.90
2022-07-31T06:16:26.196Z,99.90
2022-07-31T06:18:53.072Z,99.90
2022-07-31T06:23:45.710Z,99.90
2022-07-31T06:26:12.869Z,99.90
2022-07-31T06:28:48.149Z,99.90
2022-07-31T06:31:21.207Z,99.90
2022-07-31T06:33:49.489Z,99.90
2022-07-31T06:36:18.458Z,99.90
2022-07-31T06:38:46.000Z,99.90
2022-07-31T06:41:33.213Z,99.90
2022-07-31T06:44:00.191Z,99.90
2022-07-31T06:46:27.787Z,99.90
2022-07-31T06:48:54.687Z,99.90
2022-07-31T06:51:36.802Z,99.90
2022-07-31T06:54:07.584Z,99.90
2022-07-31T06:56:35.596Z,99.90
2022-07-31T06:59:03.999Z,99.90
2022-07-31T07:01:31.309Z,99.90
2022-07-31T07:03:58.400Z,99.90
2022-07-31T07:06:25.799Z,99.90
2022-07-31T07:08:53.405Z,99.90
2022-07-31T07:11:21.262Z,99.90
2022-07-31T07:13:48.292Z,99.90
2022-07-31T07:16:16.055Z,99.90
2022-07-31T07:18:43.434Z,99.90
2022-07-31T07:21:11.166Z,99.90
2022-07-31T07:23:38.182Z,99.90
2022-07-31T07:26:05.834Z,99.90
2022-07-31T07:28:33.111Z,99.90
2022-07-31T07:31:00.139Z,99.90
2022-07-31T07:33:39.871Z,99.90
2022-07-31T07:36:07.531Z,99.90
2022-07-31T07:38:49.134Z,99.90
2022-07-31T07:41:18.461Z,99.90
2022-07-31T07:43:45.868Z,99.90
2022-07-31T07:46:18.804Z,99.90
2022-07-31T07:48:45.649Z,99.90
2022-07-31T07:51:12.587Z,99.90
2022-07-31T07:53:40.401Z,99.90
2022-07-31T07:56:07.370Z,99.90
2022-07-31T07:58:34.309Z,99.90
2022-07-31T08:01:01.630Z,99.90
2022-07-31T08:03:50.731Z,99.90
2022-07-31T08:06:15.713Z,99.90
2022-07-31T08:08:42.558Z,99.90
2022-07-31T08:11:09.427Z,99.90
2022-07-31T08:13:36.315Z,99.90
2022-07-31T08:16:05.749Z,99.90
2022-07-31T08:18:32.611Z,99.90
2022-07-31T08:20:59.609Z,99.90
2022-07-31T08:23:26.476Z,99.90
2022-07-31T08:25:53.352Z,99.90
2022-07-31T08:28:26.027Z,99.90
2022-07-31T08:30:53.959Z,99.90
2022-07-31T08:33:21.119Z,99.90
2022-07-31T08:35:50.853Z,99.90
2022-07-31T08:38:19.702Z,99.90
2022-07-31T08:40:47.184Z,99.90
2022-07-31T08:44:00.155Z,99.90
2022-07-31T08:46:02.883Z,99.90
2022-07-31T08:48:33.418Z,99.90
2022-07-31T08:51:03.783Z,99.90
2022-07-31T08:53:36.099Z,99.90
2022-07-31T08:56:06.220Z,99.90
2022-07-31T08:58:38.726Z,99.90
2022-07-31T09:01:08.372Z,99.90
2022-07-31T09:03:36.182Z,99.90
2022-07-31T09:06:04.428Z,99.90
2022-07-31T09:08:36.621Z,99.90
2022-07-31T09:11:13.751Z,99.90
2022-07-31T09:14:02.987Z,99.90
2022-07-31T09:16:31.305Z,99.90
2022-07-31T09:19:52.431Z,99.90
2022-07-31T09:21:52.582Z,99.90
2022-07-31T09:24:31.150Z,99.90
2022-07-31T09:27:09.864Z,99.90
2022-07-31T09:29:41.432Z,99.90
2022-07-31T09:32:21.308Z,99.90
2022-07-31T09:34:48.611Z,99.90
2022-07-31T09:37:21.649Z,99.90
2022-07-31T09:39:57.327Z,99.90
2022-07-31T09:42:37.194Z,99.90
2022-07-31T09:45:20.281Z,99.90
2022-07-31T09:47:47.852Z,99.90
2022-07-31T09:50:23.710Z,99.90
2022-07-31T09:55:18.577Z,99.90
2022-07-31T09:57:54.884Z,99.90
2022-07-31T10:00:22.581Z,99.90
2022-07-31T10:02:50.341Z,99.90
2022-07-31T10:05:18.195Z,99.90
2022-07-31T10:07:47.353Z,99.90
2022-07-31T10:10:16.774Z,99.90
2022-07-31T10:12:50.363Z,99.90
2022-07-31T10:15:19.343Z,99.90
2022-07-31T10:17:50.183Z,99.90
2022-07-31T10:20:24.565Z,99.90
2022-07-31T10:22:59.657Z,99.90
2022-07-31T10:25:29.170Z,99.90
2022-07-31T10:27:57.384Z,99.90
2022-07-31T10:30:28.050Z,99.90
2022-07-31T10:32:56.393Z,99.90
2022-07-31T10:35:23.438Z,99.90
2022-07-31T10:38:20.642Z,99.90
2022-07-31T10:41:14.827Z,99.90
2022-07-31T10:43:57.414Z,99.90
2022-07-31T10:46:33.007Z,99.90
2022-07-31T10:49:00.745Z,99.90
2022-07-31T10:51:46.411Z,99.90
2022-07-31T10:54:14.205Z,99.90
2022-07-31T10:56:47.648Z,99.90
2022-07-31T10:59:14.726Z,99.90
2022-07-31T11:01:53.893Z,99.90
2022-07-31T11:04:32.261Z,99.90
2022-07-31T11:07:00.193Z,99.90
2022-07-31T11:09:29.245Z,99.90
2022-07-31T11:11:56.666Z,99.90
2022-07-31T11:14:40.350Z,99.90
2022-07-31T11:17:07.625Z,99.90
2022-07-31T11:19:40.994Z,99.30
2022-07-31T11:22:31.953Z,98.40
2022-07-31T11:25:00.582Z,99.80
2022-07-31T11:27:32.488Z,99.30
2022-07-31T11:30:13.150Z,99.90
2022-07-31T11:32:47.141Z,99.90
2022-07-31T11:35:25.922Z,99.00
2022-07-31T11:37:56.856Z,98.60
2022-07-31T11:40:27.222Z,98.90
2022-07-31T11:43:24.217Z,99.20
2022-07-31T11:45:51.338Z,99.40
2022-07-31T11:48:20.672Z,97.20
2022-07-31T11:50:49.975Z,97.00
2022-07-31T11:53:18.674Z,96.70
2022-07-31T11:56:00.806Z,95.30
2022-07-31T11:58:29.700Z,95.30
2022-07-31T12:01:02.362Z,95.90
2022-07-31T12:03:34.593Z,95.20
2022-07-31T12:06:01.886Z,94.10
2022-07-31T12:08:29.605Z,94.50
2022-07-31T12:11:00.098Z,94.30
2022-07-31T12:13:28.378Z,95.00
2022-07-31T12:16:04.107Z,96.50
2022-07-31T12:18:45.071Z,97.00
2022-07-31T12:21:12.081Z,97.80
2022-07-31T12:23:51.985Z,95.20
2022-07-31T12:26:37.234Z,96.50
2022-07-31T12:29:06.860Z,96.20
2022-07-31T12:31:50.222Z,94.90
2022-07-31T12:34:39.041Z,94.80
2022-07-31T12:37:15.245Z,97.20
2022-07-31T12:40:00.262Z,95.60
2022-07-31T12:42:34.053Z,94.90
2022-07-31T12:45:20.015Z,95.00
2022-07-31T12:47:51.717Z,95.10
2022-07-31T12:50:24.109Z,95.80
2022-07-31T12:52:51.391Z,96.90
2022-07-31T12:55:18.549Z,95.10
2022-07-31T12:57:51.560Z,93.30
2022-07-31T13:00:23.003Z,94.00
2022-07-31T13:02:51.889Z,93.00
2022-07-31T13:05:19.157Z,93.70
2022-07-31T13:07:46.170Z,94.80
2022-07-31T13:10:20.422Z,93.30
2022-07-31T13:12:52.781Z,93.60
2022-07-31T13:15:29.332Z,93.40
2022-07-31T13:17:58.288Z,93.20
2022-07-31T13:20:25.831Z,93.40
2022-07-31T13:22:52.681Z,93.40
2022-07-31T13:25:20.227Z,92.30
2022-07-31T13:27:47.836Z,93.20
2022-07-31T13:30:14.785Z,92.90
2022-07-31T13:32:41.784Z,93.30
2022-07-31T13:35:24.211Z,92.60
2022-07-31T13:37:54.280Z,91.90
2022-07-31T13:40:41.183Z,92.60
2022-07-31T13:43:08.166Z,91.30
2022-07-31T13:45:35.765Z,91.00
2022-07-31T13:48:06.881Z,91.80
2022-07-31T13:50:37.453Z,92.60
2022-07-31T13:53:04.733Z,90.00
2022-07-31T13:55:31.899Z,84.30
2022-07-31T13:57:59.453Z,88.70
2022-07-31T14:00:29.021Z,89.00
2022-07-31T14:02:56.988Z,87.90
2022-07-31T14:05:26.808Z,83.90
2022-07-31T14:07:55.629Z,81.40
2022-07-31T14:10:23.638Z,81.10
2022-07-31T14:12:52.600Z,85.20
2022-07-31T14:15:19.529Z,82.20
2022-07-31T14:17:46.676Z,82.60
2022-07-31T14:20:14.058Z,80.70
2022-07-31T14:22:42.305Z,79.60
2022-07-31T14:25:12.426Z,80.00
2022-07-31T14:27:39.784Z,76.60
2022-07-31T14:30:08.646Z,78.10
2022-07-31T14:32:35.572Z,78.70
2022-07-31T14:35:07.788Z,80.40
2022-07-31T14:37:35.106Z,82.60
2022-07-31T14:40:01.987Z,82.40
2022-07-31T14:42:28.834Z,79.90
2022-07-31T14:44:55.738Z,81.20
2022-07-31T14:47:22.941Z,83.20
2022-07-31T14:50:09.102Z,79.80
2022-07-31T14:52:36.619Z,81.60
2022-07-31T14:55:03.837Z,82.20
2022-07-31T14:57:31.493Z,84.70
2022-07-31T14:59:58.833Z,84.20
2022-07-31T15:02:26.593Z,80.30
2022-07-31T15:04:54.111Z,81.80
2022-07-31T15:07:41.303Z,81.90
2022-07-31T15:10:12.070Z,81.70
2022-07-31T15:12:39.154Z,81.70
2022-07-31T15:15:07.813Z,81.10
2022-07-31T15:17:34.694Z,81.80
2022-07-31T15:20:01.602Z,81.40
2022-07-31T15:22:28.846Z,79.80
2022-07-31T15:24:55.764Z,78.70
2022-07-31T15:27:24.108Z,79.80
2022-07-31T15:30:00.632Z,79.30
2022-07-31T15:32:37.067Z,78.20
2022-07-31T15:35:07.337Z,77.80
2022-07-31T15:37:39.610Z,77.70
2022-07-31T15:40:12.125Z,78.40
2022-07-31T15:42:41.993Z,77.10
2022-07-31T15:45:13.353Z,78.30
2022-07-31T15:47:42.065Z,76.30
2022-07-31T15:50:12.829Z,76.70
2022-07-31T15:55:09.875Z,76.40
2022-07-31T15:57:37.408Z,78.70
2022-07-31T16:00:09.477Z,78.10
2022-07-31T16:02:37.472Z,76.60
2022-07-31T16:05:11.753Z,76.40
2022-07-31T16:08:31.038Z,79.10
2022-07-31T16:10:35.470Z,75.70
2022-07-31T16:13:02.436Z,75.40
2022-07-31T16:15:29.583Z,78.60
2022-07-31T16:17:56.464Z,75.40
2022-07-31T16:20:26.765Z,76.50
2022-07-31T16:23:01.245Z,77.00
2022-07-31T16:25:34.755Z,78.30
2022-07-31T16:28:03.625Z,77.50
2022-07-31T16:30:31.002Z,78.00
2022-07-31T16:32:57.979Z,77.20
2022-07-31T16:35:26.301Z,75.80
2022-07-31T16:37:54.229Z,76.30
2022-07-31T16:40:29.417Z,77.80
2022-07-31T16:43:48.555Z,77.10
2022-07-31T16:45:51.561Z,76.90
2022-07-31T16:48:18.887Z,79.10
2022-07-31T16:50:47.406Z,78.30
2022-07-31T16:54:10.320Z,78.60
2022-07-31T16:56:10.033Z,79.40
2022-07-31T16:58:36.907Z,79.20
2022-07-31T17:01:04.267Z,78.30
2022-07-31T17:04:00.292Z,79.10
2022-07-31T17:06:18.361Z,79.80
2022-07-31T17:09:16.399Z,78.90
2022-07-31T17:11:45.638Z,79.30
2022-07-31T17:14:12.481Z,80.90
2022-07-31T17:16:42.259Z,80.30
2022-07-31T17:21:47.945Z,80.30
2022-07-31T17:24:16.869Z,81.30
2022-07-31T17:26:45.282Z,80.30
2022-07-31T17:29:15.623Z,80.50
2022-07-31T17:31:43.708Z,81.00
2022-07-31T17:34:10.639Z,81.20
2022-07-31T17:36:37.657Z,81.60
2022-07-31T17:39:05.441Z,80.20
2022-07-31T17:41:32.824Z,80.70
2022-07-31T17:43:59.716Z,81.40
2022-07-31T17:46:34.703Z,81.80
2022-07-31T17:49:05.955Z,81.50
2022-07-31T17:51:34.284Z,81.50
2022-07-31T17:54:01.153Z,81.50
2022-07-31T17:56:28.144Z,83.00
2022-07-31T17:58:55.869Z,83.20
2022-07-31T18:01:28.547Z,82.70
2022-07-31T18:03:56.175Z,83.30
2022-07-31T18:06:23.307Z,83.60
2022-07-31T18:08:50.209Z,82.70
2022-07-31T18:11:19.581Z,85.30
2022-07-31T18:13:47.945Z,83.00
2022-07-31T18:16:15.950Z,85.60
2022-07-31T18:18:42.840Z,87.00
2022-07-31T18:21:09.892Z,87.30
2022-07-31T18:23:36.839Z,88.70
2022-07-31T18:26:10.635Z,89.40
2022-07-31T18:28:37.512Z,90.80
2022-07-31T18:31:04.619Z,91.40
2022-07-31T18:33:43.477Z,91.60
2022-07-31T18:36:11.063Z,92.20
2022-07-31T18:38:39.455Z,92.60
2022-07-31T18:41:07.371Z,93.10
2022-07-31T18:43:34.670Z,93.90
2022-07-31T18:46:01.560Z,94.30
2022-07-31T18:48:29.970Z,94.50
2022-07-31T18:51:04.545Z,94.90
2022-07-31T18:53:33.300Z,95.20
2022-07-31T18:56:00.295Z,96.00
2022-07-31T18:58:27.382Z,95.80
2022-07-31T19:00:55.731Z,95.70
2022-07-31T19:03:24.309Z,96.10
2022-07-31T19:05:52.970Z,97.00
2022-07-31T19:08:20.740Z,96.90
2022-07-31T19:10:53.422Z,97.40
2022-07-31T19:13:21.803Z,98.20
2022-07-31T19:15:52.893Z,98.50
2022-07-31T19:18:28.085Z,98.90
2022-07-31T19:21:17.668Z,99.30
2022-07-31T19:23:43.945Z,99.40
2022-07-31T19:26:11.147Z,99.50
2022-07-31T19:28:39.712Z,99.90
2022-07-31T19:31:07.352Z,99.90
2022-07-31T19:33:34.224Z,99.90
2022-07-31T19:36:02.851Z,99.90
2022-07-31T19:38:31.938Z,99.90
2022-07-31T19:41:00.276Z,99.90
2022-07-31T19:43:27.977Z,99.90
2022-07-31T19:46:10.094Z,99.90
2022-07-31T19:48:42.477Z,99.90
2022-07-31T19:51:11.299Z,99.90
2022-07-31T19:53:39.365Z,99.90
2022-07-31T19:56:07.181Z,99.90
2022-07-31T19:58:35.787Z,99.90
2022-07-31T20:01:05.089Z,99.90
2022-07-31T20:03:33.298Z,99.90
2022-07-31T20:06:04.269Z,99.90
2022-07-31T20:08:33.009Z,99.90
2022-07-31T20:11:04.020Z,99.90
2022-07-31T20:13:34.189Z,99.90
2022-07-31T20:16:01.727Z,99.90
2022-07-31T20:18:29.645Z,99.90
2022-07-31T20:21:01.600Z,99.90
2022-07-31T20:23:29.066Z,99.90
2022-07-31T20:25:55.940Z,99.90
2022-07-31T20:28:23.275Z,99.90
2022-07-31T20:30:50.238Z,99.90
2022-07-31T20:33:17.403Z,99.90
2022-07-31T20:35:48.115Z,99.90
2022-07-31T20:38:21.273Z,99.90
2022-07-31T20:40:53.739Z,99.90
2022-07-31T20:43:24.308Z,99.90
2022-07-31T20:45:53.275Z,99.90
2022-07-31T20:48:24.947Z,99.90
2022-07-31T20:50:52.508Z,99.90
2022-07-31T20:53:20.979Z,99.90
2022-07-31T20:55:49.989Z,99.90
2022-07-31T20:58:24.535Z,99.90
2022-07-31T21:00:53.302Z,99.90
2022-07-31T21:03:20.910Z,99.90
2022-07-31T21:05:48.677Z,99.90
2022-07-31T21:08:16.891Z,99.90
2022-07-31T21:10:44.275Z,99.90
2022-07-31T21:13:11.197Z,99.90
2022-07-31T21:15:41.870Z,99.90
2022-07-31T21:18:16.101Z,99.90
2022-07-31T21:20:50.226Z,99.90
2022-07-31T21:23:23.870Z,99.90
2022-07-31T21:25:53.615Z,99.90
2022-07-31T21:28:22.227Z,99.90
2022-07-31T21:30:49.589Z,99.90
2022-07-31T21:33:18.233Z,99.90
2022-07-31T21:35:47.075Z,99.90
2022-07-31T21:38:17.587Z,99.90
2022-07-31T21:40:46.568Z,99.90
2022-07-31T21:43:18.507Z,99.90
2022-07-31T21:45:55.038Z,99.90
2022-07-31T21:48:25.931Z,99.90
2022-07-31T21:50:54.133Z,99.90
2022-07-31T21:53:22.391Z,99.90
2022-07-31T21:55:49.958Z,99.90
2022-07-31T21:58:17.620Z,99.90
2022-07-31T22:00:45.238Z,99.90
2022-07-31T22:03:12.242Z,99.90
2022-07-31T22:05:57.966Z,99.90
2022-07-31T22:08:24.927Z,99.90
2022-07-31T22:10:52.365Z,99.90
2022-07-31T22:13:20.243Z,99.90
2022-07-31T22:15:51.510Z,99.90
2022-07-31T22:18:32.282Z,99.90
2022-07-31T22:21:00.627Z,99.90
2022-07-31T22:23:28.733Z,99.90
2022-07-31T22:25:55.938Z,99.90
2022-07-31T22:28:24.438Z,99.90
2022-07-31T22:30:52.343Z,99.90
2022-07-31T22:33:20.736Z,99.90
2022-07-31T22:35:58.471Z,99.90
2022-07-31T22:38:30.076Z,99.90
2022-07-31T22:40:58.541Z,99.90
2022-07-31T22:44:09.863Z,99.90
2022-07-31T22:46:13.528Z,99.90
2022-07-31T22:48:41.159Z,99.90
2022-07-31T22:51:12.786Z,99.90
2022-07-31T22:53:43.044Z,99.90
2022-07-31T22:56:09.920Z,99.90
2022-07-31T22:58:36.818Z,99.90
2022-07-31T23:01:04.342Z,99.90
2022-07-31T23:03:31.174Z,99.90
2022-07-31T23:06:02.814Z,99.90
2022-07-31T23:08:44.853Z,99.90
2022-07-31T23:11:11.678Z,99.90
2022-07-31T23:13:39.680Z,99.90
2022-07-31T23:16:06.601Z,99.90
2022-07-31T23:18:33.489Z,99.90
2022-07-31T23:21:00.327Z,99.90
2022-07-31T23:23:27.254Z,99.90
2022-07-31T23:25:54.131Z,99.90
2022-07-31T23:28:21.015Z,99.90
2022-07-31T23:30:47.909Z,99.90
2022-07-31T23:33:16.423Z,99.90
2022-07-31T23:35:43.980Z,99.90
2022-07-31T23:38:11.010Z,99.90
2022-07-31T23:40:37.999Z,99.90
2022-07-31T23:43:05.559Z,99.90
2022-07-31T23:45:32.501Z,99.90
2022-07-31T23:47:59.351Z,99.90
2022-07-31T23:50:26.909Z,99.90
2022-07-31T23:52:53.780Z,99.90
2022-07-31T23:55:20.883Z,99.90
2022-07-31T23:57:47.894Z,99.90
